createdAt,value
2022-08-05T00:00:23.150Z,1.80
2022-08-05T00:01:28.438Z,1.40
2022-08-05T00:02:23.224Z,1.50
2022-08-05T00:03:23.101Z,1.40
2022-08-05T00:04:23.120Z,1.60
2022-08-05T00:06:03.005Z,1.90
2022-08-05T00:06:32.161Z,1.50
2022-08-05T00:07:59.799Z,1.60
2022-08-05T00:08:34.374Z,1.70
2022-08-05T00:09:23.061Z,1.70
2022-08-05T00:10:27.082Z,1.60
2022-08-05T00:11:28.092Z,1.70
2022-08-05T00:12:23.021Z,1.70
2022-08-05T00:13:39.124Z,1.30
2022-08-05T00:14:29.154Z,1.60
2022-08-05T00:15:55.350Z,1.50
2022-08-05T00:16:35.365Z,1.30
2022-08-05T00:17:22.975Z,1.80
2022-08-05T00:18:22.968Z,1.40
2022-08-05T00:19:23.433Z,1.70
2022-08-05T00:20:53.022Z,1.50
2022-08-05T00:21:22.937Z,1.40
2022-08-05T00:22:22.903Z,1.70
2022-08-05T00:23:44.385Z,1.60
2022-08-05T00:24:24.570Z,1.70
2022-08-05T00:25:22.892Z,1.60
2022-08-05T00:26:22.857Z,1.40
2022-08-05T00:27:36.241Z,1.40
2022-08-05T00:28:29.589Z,1.70
2022-08-05T00:29:25.564Z,1.50
2022-08-05T00:30:29.068Z,1.50
2022-08-05T00:31:41.427Z,1.80
2022-08-05T00:32:22.814Z,1.70
2022-08-05T00:34:54.889Z,1.60
2022-08-05T00:35:11.032Z,1.30
2022-08-05T00:35:22.783Z,1.50
2022-08-05T00:37:09.839Z,2.00
2022-08-05T00:37:22.810Z,1.40
2022-08-05T00:38:28.959Z,1.50
2022-08-05T00:39:22.815Z,1.60
2022-08-05T00:40:28.409Z,1.70
2022-08-05T00:41:22.715Z,1.60
2022-08-05T00:42:31.774Z,1.10
2022-08-05T00:43:22.702Z,1.30
2022-08-05T00:44:23.298Z,1.50
2022-08-05T00:45:25.019Z,1.60
2022-08-05T00:46:42.581Z,1.80
2022-08-05T00:47:22.777Z,1.80
2022-08-05T00:48:31.194Z,1.30
2022-08-05T00:49:22.625Z,1.20
2022-08-05T00:50:25.270Z,1.70
2022-08-05T00:51:50.411Z,2.00
2022-08-05T00:52:28.787Z,1.70
2022-08-05T00:54:00.765Z,1.60
2022-08-05T00:54:22.562Z,1.50
2022-08-05T00:55:22.559Z,1.60
2022-08-05T00:56:22.721Z,1.60
2022-08-05T00:57:22.941Z,1.70
2022-08-05T00:58:27.323Z,1.40
2022-08-05T00:59:22.546Z,1.60
2022-08-05T01:00:22.526Z,1.30
2022-08-05T01:01:24.897Z,1.70
2022-08-05T01:02:24.400Z,1.50
2022-08-05T01:03:23.435Z,1.80
2022-08-05T01:04:26.931Z,1.80
2022-08-05T01:05:22.463Z,1.50
2022-08-05T01:06:22.433Z,2.10
2022-08-05T01:07:22.459Z,1.70
2022-08-05T01:08:40.697Z,2.00
2022-08-05T01:09:22.694Z,1.80
2022-08-05T01:10:25.801Z,1.80
2022-08-05T01:11:24.153Z,1.60
2022-08-05T01:12:22.372Z,1.90
2022-08-05T01:13:27.468Z,1.50
2022-08-05T01:14:28.323Z,1.80
2022-08-05T01:15:36.424Z,2.10
2022-08-05T01:16:26.156Z,1.80
2022-08-05T01:17:22.678Z,1.50
2022-08-05T01:18:22.319Z,1.60
2022-08-05T01:19:46.255Z,1.40
2022-08-05T01:20:22.476Z,1.40
2022-08-05T01:21:23.069Z,1.50
2022-08-05T01:22:24.083Z,1.60
2022-08-05T01:23:22.828Z,1.40
2022-08-05T01:24:22.246Z,1.50
2022-08-05T01:25:22.248Z,1.50
2022-08-05T01:26:26.372Z,1.80
2022-08-05T01:27:22.344Z,1.70
2022-08-05T01:28:22.224Z,1.20
2022-08-05T01:29:22.940Z,1.50
2022-08-05T01:30:33.712Z,1.50
2022-08-05T01:31:22.197Z,2.10
2022-08-05T01:32:22.179Z,1.50
2022-08-05T01:33:22.193Z,1.80
2022-08-05T01:34:22.144Z,1.70
2022-08-05T01:35:50.241Z,1.30
2022-08-05T01:36:28.164Z,1.70
2022-08-05T01:37:24.982Z,1.60
2022-08-05T01:38:26.820Z,1.50
2022-08-05T01:39:46.572Z,1.50
2022-08-05T01:40:22.092Z,1.40
2022-08-05T01:41:22.144Z,1.50
2022-08-05T01:42:22.156Z,1.70
2022-08-05T01:43:24.161Z,1.70
2022-08-05T01:44:22.084Z,1.50
2022-08-05T01:45:22.055Z,1.50
2022-08-05T01:46:42.810Z,1.60
2022-08-05T01:47:22.329Z,2.10
2022-08-05T01:48:22.023Z,1.30
2022-08-05T01:49:23.878Z,1.30
2022-08-05T01:50:28.675Z,1.40
2022-08-05T01:51:21.994Z,1.60
2022-08-05T01:52:22.185Z,1.40
2022-08-05T01:53:54.971Z,1.50
2022-08-05T01:54:25.586Z,1.50
2022-08-05T01:55:21.982Z,1.40
2022-08-05T01:58:11.867Z,1.80
2022-08-05T01:58:40.379Z,1.40
2022-08-05T01:58:50.261Z,1.50
2022-08-05T01:59:29.226Z,1.40
2022-08-05T02:00:30.045Z,1.50
2022-08-05T02:01:29.291Z,1.50
2022-08-05T02:02:29.235Z,1.40
2022-08-05T02:03:31.925Z,1.80
2022-08-05T02:04:30.098Z,1.80
2022-08-05T02:05:29.201Z,1.30
2022-08-05T02:06:37.931Z,1.20
2022-08-05T02:07:30.218Z,1.40
2022-08-05T02:08:31.178Z,1.10
2022-08-05T02:09:29.139Z,1.50
2022-08-05T02:10:29.136Z,1.20
2022-08-05T02:11:33.067Z,1.60
2022-08-05T02:12:29.095Z,1.20
2022-08-05T02:13:48.792Z,1.60
2022-08-05T02:14:29.071Z,1.20
2022-08-05T02:15:33.170Z,1.50
2022-08-05T02:16:29.072Z,1.30
2022-08-05T02:18:15.178Z,1.70
2022-08-05T02:18:35.460Z,1.30
2022-08-05T02:19:34.153Z,1.30
2022-08-05T02:20:29.008Z,1.10
2022-08-05T02:21:29.037Z,1.10
2022-08-05T02:22:28.995Z,1.40
2022-08-05T02:23:28.990Z,1.30
2022-08-05T02:24:28.983Z,1.10
2022-08-05T02:25:33.019Z,1.60
2022-08-05T02:26:28.973Z,1.50
2022-08-05T02:27:30.151Z,1.40
2022-08-05T02:28:32.961Z,1.30
2022-08-05T02:29:58.973Z,1.40
2022-08-05T02:30:28.918Z,1.20
2022-08-05T02:31:28.951Z,1.30
2022-08-05T02:32:30.595Z,1.30
2022-08-05T02:33:38.316Z,1.00
2022-08-05T02:34:28.873Z,1.50
2022-08-05T02:35:33.262Z,1.40
2022-08-05T02:36:31.599Z,1.10
2022-08-05T02:37:28.866Z,2.50
2022-08-05T02:38:28.818Z,1.20
2022-08-05T02:39:28.872Z,0.90
2022-08-05T02:40:28.806Z,1.10
2022-08-05T02:41:43.362Z,1.50
2022-08-05T02:42:34.288Z,1.20
2022-08-05T02:43:28.796Z,1.20
2022-08-05T02:44:28.760Z,1.40
2022-08-05T02:45:28.761Z,2.10
2022-08-05T02:46:28.781Z,1.50
2022-08-05T02:47:58.680Z,1.30
2022-08-05T02:48:29.312Z,1.20
2022-08-05T02:49:36.998Z,1.10
2022-08-05T02:50:28.717Z,1.40
2022-08-05T02:52:03.853Z,1.30
2022-08-05T02:52:30.262Z,1.30
2022-08-05T02:53:28.676Z,1.70
2022-08-05T02:54:34.876Z,1.10
2022-08-05T02:55:53.832Z,1.40
2022-08-05T02:56:28.658Z,1.20
2022-08-05T02:58:11.080Z,1.50
2022-08-05T02:58:28.893Z,1.10
2022-08-05T02:59:28.623Z,1.20
2022-08-05T03:00:28.595Z,1.10
2022-08-05T03:01:28.668Z,1.30
2022-08-05T03:02:28.570Z,1.40
2022-08-05T03:03:28.579Z,1.20
2022-08-05T03:04:28.555Z,1.10
2022-08-05T03:06:57.161Z,1.60
2022-08-05T03:07:03.752Z,1.60
2022-08-05T03:07:59.285Z,1.40
2022-08-05T03:08:29.815Z,1.50
2022-08-05T03:09:37.384Z,1.50
2022-08-05T03:10:28.500Z,1.30
2022-08-05T03:11:56.393Z,1.20
2022-08-05T03:12:28.477Z,1.10
2022-08-05T03:13:28.480Z,1.20
2022-08-05T03:14:28.468Z,1.10
2022-08-05T03:15:28.451Z,1.20
2022-08-05T03:16:28.451Z,1.20
2022-08-05T03:17:28.420Z,1.30
2022-08-05T03:18:29.966Z,1.40
2022-08-05T03:19:34.424Z,1.50
2022-08-05T03:20:28.405Z,1.00
2022-08-05T03:21:28.869Z,1.20
2022-08-05T03:22:32.272Z,0.90
2022-08-05T03:23:28.354Z,1.20
2022-08-05T03:24:30.438Z,1.20
2022-08-05T03:26:02.671Z,1.10
2022-08-05T03:26:32.472Z,1.40
2022-08-05T03:27:39.200Z,1.20
2022-08-05T03:28:28.317Z,1.50
2022-08-05T03:29:45.186Z,1.00
2022-08-05T03:30:33.547Z,1.20
2022-08-05T03:31:57.020Z,1.40
2022-08-05T03:32:30.929Z,1.30
2022-08-05T03:33:42.231Z,1.40
2022-08-05T03:34:28.252Z,1.40
2022-08-05T03:35:28.225Z,1.30
2022-08-05T03:36:30.587Z,1.20
2022-08-05T03:37:28.222Z,1.40
2022-08-05T03:38:33.340Z,1.50
2022-08-05T03:39:28.268Z,1.10
2022-08-05T03:40:32.160Z,1.40
2022-08-05T03:41:33.012Z,1.40
2022-08-05T03:42:29.165Z,1.70
2022-08-05T03:44:08.633Z,1.10
2022-08-05T03:44:29.028Z,1.20
2022-08-05T03:45:28.140Z,1.90
2022-08-05T03:46:29.730Z,1.40
2022-08-05T03:47:30.473Z,1.50
2022-08-05T03:48:28.195Z,1.20
2022-08-05T03:49:31.205Z,1.40
2022-08-05T03:50:28.331Z,1.60
2022-08-05T03:52:38.329Z,1.30
2022-08-05T03:56:09.414Z,1.00
2022-08-05T03:56:30.508Z,1.50
2022-08-05T03:56:50.011Z,1.30
2022-08-05T03:57:48.810Z,1.30
2022-08-05T03:58:48.363Z,1.70
2022-08-05T03:59:54.988Z,1.20
2022-08-05T04:00:51.418Z,1.30
2022-08-05T04:01:48.494Z,1.50
2022-08-05T04:02:58.738Z,1.40
2022-08-05T04:04:05.383Z,1.50
2022-08-05T04:04:48.311Z,1.30
2022-08-05T04:05:48.280Z,1.40
2022-08-05T04:06:51.303Z,1.30
2022-08-05T04:07:57.247Z,1.30
2022-08-05T04:08:48.593Z,1.30
2022-08-05T04:09:53.060Z,1.30
2022-08-05T04:10:48.261Z,1.50
2022-08-05T04:11:52.477Z,1.20
2022-08-05T04:12:48.225Z,1.40
2022-08-05T04:13:51.389Z,1.40
2022-08-05T04:14:48.203Z,1.50
2022-08-05T04:16:02.802Z,1.40
2022-08-05T04:16:48.227Z,1.40
2022-08-05T04:17:57.351Z,1.70
2022-08-05T04:18:48.169Z,1.40
2022-08-05T04:19:54.479Z,1.50
2022-08-05T04:20:48.131Z,1.60
2022-08-05T04:22:10.216Z,1.30
2022-08-05T04:22:48.118Z,1.40
2022-08-05T04:24:00.208Z,1.30
2022-08-05T04:24:52.589Z,1.30
2022-08-05T04:26:00.652Z,1.20
2022-08-05T04:26:48.092Z,1.70
2022-08-05T04:27:57.280Z,1.30
2022-08-05T04:28:51.953Z,1.30
2022-08-05T04:29:48.450Z,1.40
2022-08-05T04:30:48.165Z,1.10
2022-08-05T04:31:48.521Z,1.00
2022-08-05T04:32:48.019Z,1.50
2022-08-05T04:34:17.066Z,1.20
2022-08-05T04:34:48.019Z,1.40
2022-08-05T04:36:15.760Z,1.30
2022-08-05T04:36:50.141Z,1.40
2022-08-05T04:38:01.503Z,1.70
2022-08-05T04:38:51.121Z,1.30
2022-08-05T04:39:52.773Z,1.30
2022-08-05T04:40:50.851Z,1.40
2022-08-05T04:41:48.163Z,1.30
2022-08-05T04:42:47.908Z,0.80
2022-08-05T04:43:51.979Z,1.60
2022-08-05T04:44:47.905Z,1.40
2022-08-05T04:45:55.096Z,1.00
2022-08-05T04:46:48.442Z,1.30
2022-08-05T04:47:47.841Z,1.70
2022-08-05T04:48:47.855Z,1.20
2022-08-05T04:50:02.759Z,1.10
2022-08-05T04:51:03.839Z,1.30
2022-08-05T04:51:47.826Z,1.30
2022-08-05T04:52:47.828Z,1.50
2022-08-05T04:53:47.780Z,1.30
2022-08-05T04:54:49.364Z,1.30
2022-08-05T04:56:32.275Z,1.20
2022-08-05T04:56:47.800Z,1.10
2022-08-05T04:57:54.065Z,1.90
2022-08-05T04:58:47.758Z,1.60
2022-08-05T04:59:48.155Z,1.30
2022-08-05T05:00:50.794Z,1.70
2022-08-05T05:02:07.373Z,1.50
2022-08-05T05:02:47.786Z,1.10
2022-08-05T05:03:47.695Z,1.30
2022-08-05T05:04:49.868Z,1.30
2022-08-05T05:06:39.234Z,1.40
2022-08-05T05:06:52.015Z,1.30
2022-08-05T05:07:52.979Z,1.50
2022-08-05T05:08:50.121Z,1.20
2022-08-05T05:09:47.628Z,1.60
2022-08-05T05:10:56.121Z,1.40
2022-08-05T05:11:55.487Z,1.50
2022-08-05T05:12:47.623Z,2.10
2022-08-05T05:13:47.578Z,1.50
2022-08-05T05:14:50.541Z,1.70
2022-08-05T05:15:57.395Z,1.60
2022-08-05T05:16:47.580Z,1.50
2022-08-05T05:17:56.974Z,1.50
2022-08-05T05:19:08.835Z,1.50
2022-08-05T05:19:47.531Z,1.30
2022-08-05T05:20:47.526Z,1.40
2022-08-05T05:21:47.532Z,1.40
2022-08-05T05:22:47.503Z,1.40
2022-08-05T05:24:03.829Z,1.70
2022-08-05T05:24:57.899Z,1.50
2022-08-05T05:25:47.760Z,1.40
2022-08-05T05:26:50.050Z,1.60
2022-08-05T05:27:53.677Z,1.50
2022-08-05T05:28:47.452Z,1.40
2022-08-05T05:30:04.369Z,1.10
2022-08-05T05:30:49.602Z,1.40
2022-08-05T05:31:47.434Z,1.70
2022-08-05T05:32:47.402Z,1.30
2022-08-05T05:33:59.543Z,1.20
2022-08-05T05:34:47.381Z,1.10
2022-08-05T05:35:47.916Z,1.40
2022-08-05T05:36:47.364Z,1.20
2022-08-05T05:37:59.772Z,1.30
2022-08-05T05:38:47.347Z,1.40
2022-08-05T05:39:47.408Z,1.40
2022-08-05T05:40:51.321Z,1.10
2022-08-05T05:41:54.137Z,1.50
2022-08-05T05:42:47.289Z,2.30
2022-08-05T05:43:58.627Z,1.90
2022-08-05T05:44:47.286Z,1.30
2022-08-05T05:45:48.163Z,1.40
2022-08-05T05:46:47.747Z,1.20
2022-08-05T05:48:05.438Z,1.30
2022-08-05T05:48:48.220Z,1.60
2022-08-05T05:49:47.210Z,1.60
2022-08-05T05:50:47.234Z,1.40
2022-08-05T05:51:50.396Z,1.50
2022-08-05T05:52:47.214Z,1.40
2022-08-05T05:53:57.161Z,1.50
2022-08-05T05:54:50.255Z,1.40
2022-08-05T05:55:52.236Z,1.00
2022-08-05T05:56:47.349Z,1.80
2022-08-05T05:57:52.188Z,1.70
2022-08-05T05:58:47.149Z,1.30
2022-08-05T05:59:47.122Z,1.40
2022-08-05T06:00:47.120Z,1.60
2022-08-05T06:01:57.150Z,1.20
2022-08-05T06:02:47.105Z,1.50
2022-08-05T06:04:00.755Z,1.40
2022-08-05T06:04:49.131Z,1.60
2022-08-05T06:05:54.176Z,1.90
2022-08-05T06:06:48.735Z,1.80
2022-08-05T06:07:57.947Z,1.40
2022-08-05T06:08:49.194Z,1.60
2022-08-05T06:09:59.894Z,1.50
2022-08-05T06:10:52.358Z,1.50
2022-08-05T06:11:59.184Z,1.10
2022-08-05T06:12:46.998Z,1.60
2022-08-05T06:13:53.646Z,1.60
2022-08-05T06:14:46.993Z,1.40
2022-08-05T06:16:29.108Z,1.80
2022-08-05T06:16:46.958Z,1.40
2022-08-05T06:17:52.821Z,1.50
2022-08-05T06:18:46.925Z,1.60
2022-08-05T06:19:56.937Z,1.30
2022-08-05T06:20:47.776Z,1.30
2022-08-05T06:21:49.690Z,2.10
2022-08-05T06:22:46.911Z,1.50
2022-08-05T06:23:46.897Z,1.40
2022-08-05T06:24:46.873Z,2.00
2022-08-05T06:26:13.405Z,1.50
2022-08-05T06:26:51.302Z,1.70
2022-08-05T06:28:12.749Z,1.60
2022-08-05T06:28:46.824Z,2.20
2022-08-05T06:30:05.950Z,1.50
2022-08-05T06:30:46.811Z,1.40
2022-08-05T06:31:46.790Z,1.20
2022-08-05T06:32:46.899Z,1.50
2022-08-05T06:34:05.994Z,1.40
2022-08-05T06:34:47.026Z,1.10
2022-08-05T06:36:03.497Z,1.70
2022-08-05T06:36:57.399Z,1.40
2022-08-05T06:37:57.450Z,1.40
2022-08-05T06:38:47.229Z,1.40
2022-08-05T06:39:46.738Z,1.50
2022-08-05T06:40:46.720Z,1.80
2022-08-05T06:41:46.679Z,1.80
2022-08-05T06:42:46.688Z,1.40
2022-08-05T06:43:58.297Z,2.20
2022-08-05T06:48:58.746Z,1.50
2022-08-05T06:49:07.524Z,1.50
2022-08-05T06:50:05.288Z,1.50
2022-08-05T06:51:09.940Z,1.70
2022-08-05T06:52:04.195Z,1.50
2022-08-05T06:53:19.588Z,1.90
2022-08-05T06:54:04.152Z,2.00
2022-08-05T06:55:04.102Z,1.90
2022-08-05T06:56:04.131Z,1.90
2022-08-05T06:57:56.663Z,1.80
2022-08-05T06:58:30.004Z,2.00
2022-08-05T06:59:08.484Z,1.60
2022-08-05T07:00:04.067Z,1.70
2022-08-05T07:01:04.160Z,1.50
2022-08-05T07:02:04.043Z,1.90
2022-08-05T07:03:04.032Z,1.90
2022-08-05T07:04:04.073Z,1.60
2022-08-05T07:05:04.005Z,2.10
2022-08-05T07:06:06.126Z,1.70
2022-08-05T07:07:07.856Z,2.40
2022-08-05T07:08:03.987Z,1.80
2022-08-05T07:09:04.636Z,2.10
2022-08-05T07:10:03.970Z,1.70
2022-08-05T07:11:03.945Z,1.90
2022-08-05T07:12:03.970Z,1.80
2022-08-05T07:13:05.589Z,1.70
2022-08-05T07:14:04.262Z,2.30
2022-08-05T07:15:03.888Z,1.70
2022-08-05T07:16:04.779Z,2.40
2022-08-05T07:18:01.317Z,2.40
2022-08-05T07:18:20.407Z,1.80
2022-08-05T07:19:03.878Z,1.90
2022-08-05T07:20:32.157Z,1.60
2022-08-05T07:21:05.470Z,1.70
2022-08-05T07:22:03.875Z,2.10
2022-08-05T07:23:04.585Z,1.50
2022-08-05T07:24:03.813Z,1.70
2022-08-05T07:25:54.489Z,2.00
2022-08-05T07:26:03.795Z,2.00
2022-08-05T07:27:03.768Z,1.80
2022-08-05T07:28:08.263Z,2.00
2022-08-05T07:29:03.765Z,1.70
2022-08-05T07:30:25.483Z,1.70
2022-08-05T07:31:03.754Z,1.50
2022-08-05T07:32:03.920Z,1.30
2022-08-05T07:33:05.558Z,1.00
2022-08-05T07:34:03.730Z,1.10
2022-08-05T07:36:02.889Z,1.30
2022-08-05T07:36:20.627Z,1.50
2022-08-05T07:37:03.670Z,1.60
2022-08-05T07:38:03.660Z,2.20
2022-08-05T07:39:05.637Z,2.20
2022-08-05T07:40:31.617Z,1.50
2022-08-05T07:42:07.355Z,1.80
2022-08-05T07:42:16.248Z,1.50
2022-08-05T07:43:13.817Z,1.30
2022-08-05T07:44:03.874Z,1.80
2022-08-05T07:45:03.600Z,1.40
2022-08-05T07:46:03.603Z,1.80
2022-08-05T07:47:06.213Z,1.40
2022-08-05T07:48:03.582Z,1.50
2022-08-05T07:49:06.277Z,1.80
2022-08-05T07:50:06.508Z,1.20
2022-08-05T07:51:03.532Z,2.00
2022-08-05T07:52:03.525Z,1.40
2022-08-05T07:53:03.503Z,1.20
2022-08-05T07:54:03.786Z,1.60
2022-08-05T07:55:04.300Z,1.40
2022-08-05T07:56:06.462Z,1.10
2022-08-05T07:57:50.564Z,1.30
2022-08-05T07:58:04.077Z,2.40
2022-08-05T07:59:03.461Z,1.30
2022-08-05T08:00:03.465Z,1.10
2022-08-05T08:01:06.239Z,1.60
2022-08-05T08:02:03.434Z,1.10
2022-08-05T08:03:14.896Z,1.20
2022-08-05T08:04:03.399Z,1.40
2022-08-05T08:05:03.410Z,1.10
2022-08-05T08:06:03.404Z,2.10
2022-08-05T08:07:05.504Z,1.50
2022-08-05T08:08:03.349Z,1.50
2022-08-05T08:09:03.363Z,1.20
2022-08-05T08:10:03.356Z,1.10
2022-08-05T08:11:03.343Z,1.40
2022-08-05T08:12:10.660Z,1.20
2022-08-05T08:13:03.340Z,1.10
2022-08-05T08:14:03.295Z,1.10
2022-08-05T08:15:04.451Z,1.30
2022-08-05T08:16:35.650Z,0.80
2022-08-05T08:17:03.268Z,1.00
2022-08-05T08:18:06.984Z,1.10
2022-08-05T08:19:03.246Z,1.20
2022-08-05T08:20:21.107Z,1.40
2022-08-05T08:21:04.170Z,0.90
2022-08-05T08:22:03.215Z,0.90
2022-08-05T08:23:03.420Z,0.90
2022-08-05T08:24:05.269Z,1.10
2022-08-05T08:25:03.972Z,1.00
2022-08-05T08:26:04.626Z,0.90
2022-08-05T08:27:03.193Z,1.30
2022-08-05T08:28:03.139Z,1.20
2022-08-05T08:30:03.126Z,1.10
2022-08-05T08:30:27.697Z,0.80
2022-08-05T08:31:04.451Z,1.00
2022-08-05T08:32:03.152Z,1.00
2022-08-05T08:33:08.064Z,1.30
2022-08-05T08:34:03.105Z,0.70
2022-08-05T08:35:03.105Z,0.80
2022-08-05T08:36:29.322Z,1.20
2022-08-05T08:37:04.788Z,0.80
2022-08-05T08:38:03.068Z,1.00
2022-08-05T08:39:03.097Z,0.50
2022-08-05T08:40:03.636Z,1.00
2022-08-05T08:41:03.026Z,0.80
2022-08-05T08:42:04.604Z,0.80
2022-08-05T08:45:16.332Z,1.00
2022-08-05T08:45:29.618Z,1.10
2022-08-05T08:45:34.745Z,0.80
2022-08-05T08:46:34.748Z,1.20
2022-08-05T08:48:06.656Z,0.90
2022-08-05T08:49:03.365Z,1.10
2022-08-05T08:50:23.482Z,0.80
2022-08-05T08:51:22.612Z,0.90
2022-08-05T08:52:13.597Z,0.80
2022-08-05T08:52:34.702Z,0.80
2022-08-05T08:53:34.681Z,0.80
2022-08-05T08:54:36.298Z,1.20
2022-08-05T08:56:04.605Z,1.00
2022-08-05T08:56:34.657Z,1.20
2022-08-05T08:57:48.324Z,0.80
2022-08-05T08:58:43.098Z,0.90
2022-08-05T08:59:34.644Z,0.70
2022-08-05T09:00:34.636Z,0.70
2022-08-05T09:01:34.679Z,1.10
2022-08-05T09:02:34.606Z,1.00
2022-08-05T09:03:40.412Z,1.30
2022-08-05T09:04:34.572Z,1.00
2022-08-05T09:05:38.752Z,1.30
2022-08-05T09:06:36.191Z,0.90
2022-08-05T09:07:39.878Z,0.90
2022-08-05T09:08:34.529Z,1.10
2022-08-05T09:09:35.429Z,1.00
2022-08-05T09:10:34.516Z,1.10
2022-08-05T09:11:51.176Z,0.90
2022-08-05T09:12:35.001Z,1.00
2022-08-05T09:14:01.160Z,0.80
2022-08-05T09:15:04.779Z,0.80
2022-08-05T09:15:36.959Z,0.90
2022-08-05T09:16:34.479Z,0.80
2022-08-05T09:17:40.501Z,0.80
2022-08-05T09:18:34.459Z,0.80
2022-08-05T09:19:36.602Z,0.70
2022-08-05T09:20:37.635Z,0.80
2022-08-05T09:22:23.041Z,0.60
2022-08-05T09:22:36.487Z,0.70
2022-08-05T09:23:43.333Z,0.70
2022-08-05T09:24:34.387Z,0.80
2022-08-05T09:26:00.353Z,0.70
2022-08-05T09:26:34.359Z,0.70
2022-08-05T09:28:05.219Z,0.90
2022-08-05T09:28:34.864Z,0.60
2022-08-05T09:29:34.349Z,0.50
2022-08-05T09:30:34.402Z,0.90
2022-08-05T09:32:51.325Z,0.70
2022-08-05T09:32:56.758Z,1.00
2022-08-05T09:33:35.213Z,1.10
2022-08-05T09:34:34.317Z,1.20
2022-08-05T09:35:34.291Z,0.90
2022-08-05T09:36:34.268Z,1.10
2022-08-05T09:38:17.324Z,0.80
2022-08-05T09:38:34.266Z,1.00
2022-08-05T09:39:45.234Z,1.10
2022-08-05T09:40:34.234Z,1.00
2022-08-05T09:41:39.100Z,1.00
2022-08-05T09:42:34.852Z,1.00
2022-08-05T09:43:41.024Z,1.00
2022-08-05T09:44:34.195Z,0.70
2022-08-05T09:46:06.908Z,0.60
2022-08-05T09:46:35.084Z,0.80
2022-08-05T09:47:36.532Z,1.00
2022-08-05T09:48:34.141Z,0.90
2022-08-05T09:49:54.853Z,0.90
2022-08-05T09:50:38.913Z,1.10
2022-08-05T09:51:34.140Z,0.70
2022-08-05T09:52:35.341Z,0.60
2022-08-05T09:53:53.903Z,1.10
2022-08-05T09:54:34.092Z,0.80
2022-08-05T09:55:57.459Z,0.90
2022-08-05T09:56:34.082Z,1.30
2022-08-05T09:57:35.363Z,1.10
2022-08-05T09:58:34.076Z,0.90
2022-08-05T09:59:35.091Z,1.20
2022-08-05T10:00:34.028Z,0.80
2022-08-05T10:01:34.027Z,1.00
2022-08-05T10:02:34.073Z,0.90
2022-08-05T10:03:51.822Z,1.00
2022-08-05T10:04:33.997Z,0.90
2022-08-05T10:05:33.999Z,0.80
2022-08-05T10:06:33.972Z,0.90
2022-08-05T10:08:10.567Z,1.10
2022-08-05T10:08:42.443Z,0.70
2022-08-05T10:09:45.436Z,0.90
2022-08-05T10:10:33.973Z,0.80
2022-08-05T10:11:35.191Z,0.80
2022-08-05T10:12:34.165Z,0.90
2022-08-05T10:13:46.303Z,0.90
2022-08-05T10:14:33.911Z,1.00
2022-08-05T10:15:34.096Z,0.70
2022-08-05T10:16:37.618Z,0.90
2022-08-05T10:17:38.064Z,0.90
2022-08-05T10:18:33.916Z,0.80
2022-08-05T10:20:04.288Z,0.80
2022-08-05T10:20:33.853Z,0.80
2022-08-05T10:21:35.190Z,0.70
2022-08-05T10:22:37.684Z,1.40
2022-08-05T10:23:55.233Z,0.70
2022-08-05T10:24:33.812Z,1.00
2022-08-05T10:25:33.814Z,0.80
2022-08-05T10:26:33.866Z,0.80
2022-08-05T10:28:13.681Z,0.80
2022-08-05T10:28:33.850Z,0.90
2022-08-05T10:30:06.967Z,0.90
2022-08-05T10:32:54.349Z,0.70
2022-08-05T10:33:04.943Z,1.20
2022-08-05T10:33:14.707Z,0.90
2022-08-05T10:34:14.037Z,0.70
2022-08-05T10:35:14.005Z,0.90
2022-08-05T10:36:14.006Z,0.90
2022-08-05T10:37:13.980Z,0.70
2022-08-05T10:38:13.994Z,0.80
2022-08-05T10:39:24.602Z,0.90
2022-08-05T10:40:17.410Z,0.90
2022-08-05T10:41:14.140Z,0.80
2022-08-05T10:42:13.952Z,0.90
2022-08-05T10:43:13.947Z,1.20
2022-08-05T10:44:13.920Z,1.00
2022-08-05T10:45:23.347Z,0.80
2022-08-05T10:46:13.917Z,0.90
2022-08-05T10:47:26.817Z,0.90
2022-08-05T10:48:31.460Z,0.90
2022-08-05T10:49:16.322Z,0.90
2022-08-05T10:50:32.419Z,0.70
2022-08-05T10:51:22.340Z,0.60
2022-08-05T10:52:13.840Z,0.80
2022-08-05T10:53:13.831Z,1.20
2022-08-05T10:54:28.606Z,0.80
2022-08-05T10:55:15.949Z,0.70
2022-08-05T10:56:21.046Z,0.80
2022-08-05T10:57:13.780Z,1.00
2022-08-05T10:58:15.638Z,0.70
2022-08-05T11:00:03.390Z,0.80
2022-08-05T11:00:19.112Z,0.70
2022-08-05T11:01:13.749Z,1.00
2022-08-05T11:02:14.721Z,0.80
2022-08-05T11:03:25.201Z,0.60
2022-08-05T11:04:13.766Z,0.80
2022-08-05T11:05:13.697Z,0.70
2022-08-05T11:06:15.651Z,1.30
2022-08-05T11:07:13.698Z,0.80
2022-08-05T11:08:36.613Z,0.90
2022-08-05T11:09:16.807Z,0.70
2022-08-05T11:10:13.668Z,0.50
2022-08-05T11:11:16.741Z,0.80
2022-08-05T11:12:13.661Z,0.90
2022-08-05T11:13:13.636Z,0.70
2022-08-05T11:14:13.641Z,1.10
2022-08-05T11:15:20.464Z,0.80
2022-08-05T11:16:13.607Z,0.50
2022-08-05T11:17:59.072Z,0.80
2022-08-05T11:18:14.578Z,0.60
2022-08-05T11:20:16.960Z,0.80
2022-08-05T11:20:23.170Z,1.10
2022-08-05T11:21:13.541Z,1.00
2022-08-05T11:22:13.553Z,0.80
2022-08-05T11:23:13.517Z,0.70
2022-08-05T11:24:29.985Z,0.90
2022-08-05T11:26:03.238Z,0.70
2022-08-05T11:26:13.516Z,0.90
2022-08-05T11:27:13.493Z,1.00
2022-08-05T11:28:17.164Z,0.60
2022-08-05T11:29:14.299Z,0.90
2022-08-05T11:30:13.476Z,0.70
2022-08-05T11:31:54.101Z,0.90
2022-08-05T11:32:13.452Z,0.80
2022-08-05T11:33:20.930Z,0.80
2022-08-05T11:34:14.800Z,0.90
2022-08-05T11:35:15.419Z,0.80
2022-08-05T11:36:13.395Z,1.00
2022-08-05T11:38:30.793Z,0.90
2022-08-05T11:38:45.997Z,0.80
2022-08-05T11:39:13.592Z,0.80
2022-08-05T11:40:13.379Z,0.80
2022-08-05T11:41:58.004Z,1.00
2022-08-05T11:42:18.336Z,1.00
2022-08-05T11:43:13.332Z,0.90
2022-08-05T11:44:40.123Z,0.80
2022-08-05T11:45:27.012Z,0.90
2022-08-05T11:46:32.527Z,0.90
2022-08-05T11:47:18.550Z,0.80
2022-08-05T11:48:13.289Z,1.00
2022-08-05T11:49:13.280Z,0.70
2022-08-05T11:50:14.140Z,0.90
2022-08-05T11:51:13.250Z,0.80
2022-08-05T11:52:13.250Z,0.90
2022-08-05T11:53:13.232Z,0.90
2022-08-05T11:54:13.895Z,1.10
2022-08-05T11:55:13.212Z,1.20
2022-08-05T11:56:13.224Z,0.80
2022-08-05T11:57:25.977Z,0.60
2022-08-05T11:58:13.191Z,0.70
2022-08-05T11:59:13.706Z,0.90
2022-08-05T12:00:13.165Z,1.00
2022-08-05T12:01:13.163Z,0.80
2022-08-05T12:02:30.319Z,0.90
2022-08-05T12:03:13.212Z,0.90
2022-08-05T12:04:13.635Z,0.90
2022-08-05T12:05:18.152Z,0.80
2022-08-05T12:06:13.134Z,0.70
2022-08-05T12:07:18.416Z,1.00
2022-08-05T12:08:18.446Z,0.90
2022-08-05T12:09:19.990Z,0.80
2022-08-05T12:10:13.168Z,0.90
2022-08-05T12:11:17.270Z,1.00
2022-08-05T12:12:13.076Z,0.90
2022-08-05T12:13:15.865Z,0.90
2022-08-05T12:14:13.023Z,0.90
2022-08-05T12:15:16.717Z,1.00
2022-08-05T12:16:14.607Z,1.10
2022-08-05T12:18:03.201Z,1.00
2022-08-05T12:18:13.252Z,0.90
2022-08-05T12:20:25.692Z,1.00
2022-08-05T12:20:33.722Z,0.90
2022-08-05T12:21:15.236Z,1.20
2022-08-05T12:22:12.946Z,1.00
2022-08-05T12:23:12.944Z,1.10
2022-08-05T12:24:12.911Z,1.30
2022-08-05T12:25:14.422Z,0.90
2022-08-05T12:26:12.899Z,1.00
2022-08-05T12:27:21.553Z,1.10
2022-08-05T12:28:12.877Z,1.40
2022-08-05T12:29:16.437Z,1.00
2022-08-05T12:30:15.571Z,0.80
2022-08-05T12:31:12.869Z,1.00
2022-08-05T12:32:12.847Z,0.80
2022-08-05T12:33:27.443Z,1.00
2022-08-05T12:34:14.582Z,0.90
2022-08-05T12:35:12.822Z,1.00
2022-08-05T12:36:12.858Z,1.00
2022-08-05T12:37:17.026Z,0.90
2022-08-05T12:38:12.777Z,1.30
2022-08-05T12:39:12.815Z,1.20
2022-08-05T12:40:26.382Z,0.80
2022-08-05T12:41:13.261Z,1.10
2022-08-05T12:42:14.705Z,0.80
2022-08-05T12:43:12.727Z,0.80
2022-08-05T12:44:14.388Z,1.20
2022-08-05T12:45:12.733Z,1.20
2022-08-05T12:46:12.690Z,1.00
2022-08-05T12:47:12.902Z,1.00
2022-08-05T12:48:26.850Z,0.80
2022-08-05T12:49:13.720Z,1.50
2022-08-05T12:50:12.658Z,1.20
2022-08-05T12:52:10.339Z,0.90
2022-08-05T12:52:25.390Z,1.30
2022-08-05T12:53:12.660Z,0.90
2022-08-05T12:54:14.837Z,0.90
2022-08-05T12:55:12.612Z,1.10
2022-08-05T12:56:34.549Z,0.90
2022-08-05T12:57:12.810Z,1.10
2022-08-05T12:58:48.495Z,1.10
2022-08-05T12:59:13.902Z,1.30
2022-08-05T13:01:59.784Z,1.10
2022-08-05T13:02:10.722Z,0.90
2022-08-05T13:02:15.602Z,1.50
2022-08-05T13:03:15.630Z,0.90
2022-08-05T13:04:20.581Z,1.00
2022-08-05T13:05:15.529Z,1.30
2022-08-05T13:06:16.016Z,0.70
2022-08-05T13:07:16.205Z,1.20
2022-08-05T13:08:15.562Z,1.00
2022-08-05T13:09:15.493Z,1.00
2022-08-05T13:10:19.468Z,0.80
2022-08-05T13:11:15.475Z,1.00
2022-08-05T13:12:16.234Z,0.90
2022-08-05T13:14:05.273Z,1.00
2022-08-05T13:14:15.484Z,1.20
2022-08-05T13:15:16.452Z,0.90
2022-08-05T13:16:16.704Z,1.10
2022-08-05T13:17:15.428Z,0.90
2022-08-05T13:18:19.688Z,1.10
2022-08-05T13:19:15.943Z,1.00
2022-08-05T13:20:19.152Z,1.00
2022-08-05T13:21:15.363Z,0.90
2022-08-05T13:22:27.943Z,0.90
2022-08-05T13:23:16.330Z,1.00
2022-08-05T13:24:15.351Z,1.00
2022-08-05T13:25:19.551Z,1.10